sensor_id;sensor_type;location;lat;lon;timestamp;pressure;altitude;pressure_sealevel;temperature;humidity
31225;BME280;17847;31.524;74.366;2023-07-31T00:01:07;97338.06;;;27.82;100.00
31225;BME280;17847;31.524;74.366;2023-07-31T00:03:36;97336.81;;;27.79;100.00
31225;BME280;17847;31.524;74.366;2023-07-31T00:06:06;97340.31;;;27.80;100.00
31225;BME280;17847;31.524;74.366;2023-07-31T00:08:35;97336.03;;;27.79;100.00
31225;BME280;17847;31.524;74.366;2023-07-31T00:11:05;97341.47;;;27.79;100.00
31225;BME280;17847;31.524;74.366;2023-07-31T00:13:34;97341.47;;;27.79;100.00
31225;BME280;17847;31.524;74.366;2023-07-31T00:16:03;97338.28;;;27.77;100.00
31225;BME280;17847;31.524;74.366;2023-07-31T00:18:33;97343.72;;;27.77;100.00
31225;BME280;17847;31.524;74.366;2023-07-31T00:21:02;97343.72;;;27.77;100.00
31225;BME280;17847;31.524;74.366;2023-07-31T00:23:31;97333.63;;;27.77;100.00
31225;BME280;17847;31.524;74.366;2023-07-31T00:26:01;97334.75;;;27.76;100.00
31225;BME280;17847;31.524;74.366;2023-07-31T00:28:30;97348.84;;;27.78;100.00
31225;BME280;17847;31.524;74.366;2023-07-31T00:31:00;97342.25;;;27.79;100.00
31225;BME280;17847;31.524;74.366;2023-07-31T00:33:31;97343.84;;;27.80;100.00
31225;BME280;17847;31.524;74.366;2023-07-31T00:36:03;97345.75;;;27.80;100.00
31225;BME280;17847;31.524;74.366;2023-07-31T00:38:32;97338.84;;;27.82;100.00
31225;BME280;17847;31.524;74.366;2023-07-31T00:41:02;97343.97;;;27.84;100.00
31225;BME280;17847;31.524;74.366;2023-07-31T00:43:31;97340.91;;;27.85;100.00
31225;BME280;17847;31.524;74.366;2023-07-31T00:46:01;97344.41;;;27.86;100.00
31225;BME280;17847;31.524;74.366;2023-07-31T00:48:31;97344.88;;;27.88;100.00
31225;BME280;17847;31.524;74.366;2023-07-31T00:51:01;97346.44;;;27.89;100.00
31225;BME280;17847;31.524;74.366;2023-07-31T00:53:31;97341.47;;;27.91;100.00
31225;BME280;17847;31.524;74.366;2023-07-31T00:56:00;97342.38;;;27.95;100.00
31225;BME280;17847;31.524;74.366;2023-07-31T00:58:30;97352.25;;;27.99;100.00
31225;BME280;17847;31.524;74.366;2023-07-31T01:00:59;97352.38;;;28.03;100.00
31225;BME280;17847;31.524;74.366;2023-07-31T01:03:30;97356.38;;;28.05;100.00
31225;BME280;17847;31.524;74.366;2023-07-31T01:11:27;97359.66;;;28.11;100.00
31225;BME280;17847;31.524;74.366;2023-07-31T01:13:58;97355.94;;;28.16;100.00
31225;BME280;17847;31.524;74.366;2023-07-31T01:16:28;97365.16;;;28.23;100.00
31225;BME280;17847;31.524;74.366;2023-07-31T01:18:57;97373.88;;;28.29;100.00
31225;BME280;17847;31.524;74.366;2023-07-31T01:27:12;97379.44;;;28.44;100.00
31225;BME280;17847;31.524;74.366;2023-07-31T01:32:47;97381.38;;;28.56;100.00
31225;BME280;17847;31.524;74.366;2023-07-31T01:35:17;97389.31;;;28.61;100.00
31225;BME280;17847;31.524;74.366;2023-07-31T01:37:47;97377.84;;;28.68;100.00
31225;BME280;17847;31.524;74.366;2023-07-31T01:40:17;97382.63;;;28.71;100.00
31225;BME280;17847;31.524;74.366;2023-07-31T01:42:46;97387.16;;;28.79;100.00
31225;BME280;17847;31.524;74.366;2023-07-31T01:45:16;97395.53;;;28.86;100.00
31225;BME280;17847;31.524;74.366;2023-07-31T01:47:46;97396.13;;;28.91;100.00
31225;BME280;17847;31.524;74.366;2023-07-31T01:50:16;97404.53;;;28.98;100.00
31225;BME280;17847;31.524;74.366;2023-07-31T01:52:46;97402.91;;;29.10;100.00
31225;BME280;17847;31.524;74.366;2023-07-31T01:55:15;97393.44;;;29.31;100.00
31225;BME280;17847;31.524;74.366;2023-07-31T01:57:44;97405.69;;;29.65;100.00
31225;BME280;17847;31.524;74.366;2023-07-31T02:00:13;97413.00;;;29.89;100.00
31225;BME280;17847;31.524;74.366;2023-07-31T02:02:43;97407.22;;;30.22;100.00
31225;BME280;17847;31.524;74.366;2023-07-31T02:05:13;97417.44;;;30.41;100.00
31225;BME280;17847;31.524;74.366;2023-07-31T02:07:43;97412.69;;;30.85;100.00
31225;BME280;17847;31.524;74.366;2023-07-31T02:10:12;97424.81;;;31.03;100.00
31225;BME280;17847;31.524;74.366;2023-07-31T02:12:41;97428.63;;;31.33;100.00
31225;BME280;17847;31.524;74.366;2023-07-31T02:15:11;97433.69;;;31.50;100.00
31225;BME280;17847;31.524;74.366;2023-07-31T02:17:41;97428.22;;;31.70;100.00
31225;BME280;17847;31.524;74.366;2023-07-31T02:20:10;97438.53;;;31.76;100.00
31225;BME280;17847;31.524;74.366;2023-07-31T02:22:40;97431.56;;;32.01;100.00
31225;BME280;17847;31.524;74.366;2023-07-31T02:25:10;97439.19;;;32.31;98.82
31225;BME280;17847;31.524;74.366;2023-07-31T02:27:39;97436.66;;;32.22;98.20
31225;BME280;17847;31.524;74.366;2023-07-31T02:30:09;97432.09;;;32.52;99.82
31225;BME280;17847;31.524;74.366;2023-07-31T02:32:39;97431.94;;;32.65;98.10
31225;BME280;17847;31.524;74.366;2023-07-31T02:35:08;97434.59;;;32.84;95.19
31225;BME280;17847;31.524;74.366;2023-07-31T02:37:38;97438.72;;;32.97;93.80
31225;BME280;17847;31.524;74.366;2023-07-31T02:40:08;97442.59;;;32.96;94.41
31225;BME280;17847;31.524;74.366;2023-07-31T02:42:37;97446.47;;;32.91;96.07
31225;BME280;17847;31.524;74.366;2023-07-31T02:45:08;97442.22;;;32.97;94.62
31225;BME280;17847;31.524;74.366;2023-07-31T02:47:37;97444.19;;;32.97;92.90
31225;BME280;17847;31.524;74.366;2023-07-31T02:50:07;97446.59;;;33.02;93.11
31225;BME280;17847;31.524;74.366;2023-07-31T02:52:37;97452.53;;;33.04;92.96
31225;BME280;17847;31.524;74.366;2023-07-31T02:55:06;97449.88;;;33.11;92.57
31225;BME280;17847;31.524;74.366;2023-07-31T02:57:36;97452.34;;;32.93;92.51
31225;BME280;17847;31.524;74.366;2023-07-31T03:00:06;97453.06;;;32.87;93.86
31225;BME280;17847;31.524;74.366;2023-07-31T03:02:35;97458.75;;;32.75;91.91
31225;BME280;17847;31.524;74.366;2023-07-31T03:05:05;97466.47;;;32.69;91.91
31225;BME280;17847;31.524;74.366;2023-07-31T03:07:34;97460.44;;;32.60;94.19
31225;BME280;17847;31.524;74.366;2023-07-31T03:10:05;97458.63;;;32.68;93.38
31225;BME280;17847;31.524;74.366;2023-07-31T03:12:35;97470.00;;;32.47;92.28
31225;BME280;17847;31.524;74.366;2023-07-31T03:15:05;97466.44;;;32.24;92.90
31225;BME280;17847;31.524;74.366;2023-07-31T03:17:35;97465.16;;;32.18;93.57
31225;BME280;17847;31.524;74.366;2023-07-31T03:20:05;97458.09;;;32.17;94.73
31225;BME280;17847;31.524;74.366;2023-07-31T03:22:36;97455.06;;;32.22;97.10
31225;BME280;17847;31.524;74.366;2023-07-31T03:25:06;97467.34;;;32.31;97.14
31225;BME280;17847;31.524;74.366;2023-07-31T03:27:35;97467.97;;;32.21;93.50
31225;BME280;17847;31.524;74.366;2023-07-31T03:30:05;97466.22;;;32.32;95.09
31225;BME280;17847;31.524;74.366;2023-07-31T03:32:36;97457.88;;;32.25;92.43
31225;BME280;17847;31.524;74.366;2023-07-31T03:35:06;97469.34;;;32.31;92.77
31225;BME280;17847;31.524;74.366;2023-07-31T03:37:36;97476.50;;;32.39;92.47
31225;BME280;17847;31.524;74.366;2023-07-31T03:40:07;97473.09;;;32.45;88.32
31225;BME280;17847;31.524;74.366;2023-07-31T03:42:37;97473.69;;;32.58;86.57
31225;BME280;17847;31.524;74.366;2023-07-31T03:45:07;97469.63;;;32.71;90.40
31225;BME280;17847;31.524;74.366;2023-07-31T03:47:36;97477.03;;;32.93;91.50
31225;BME280;17847;31.524;74.366;2023-07-31T03:50:06;97474.97;;;33.10;89.78
31225;BME280;17847;31.524;74.366;2023-07-31T03:52:36;97481.44;;;33.24;84.93
31225;BME280;17847;31.524;74.366;2023-07-31T03:55:05;97484.16;;;33.21;80.88
31225;BME280;17847;31.524;74.366;2023-07-31T03:57:35;97485.50;;;33.34;87.02
31225;BME280;17847;31.524;74.366;2023-07-31T04:00:05;97480.22;;;33.48;87.92
31225;BME280;17847;31.524;74.366;2023-07-31T04:02:38;97488.97;;;33.57;89.16
31225;BME280;17847;31.524;74.366;2023-07-31T04:05:08;97485.41;;;33.83;87.65
31225;BME280;17847;31.524;74.366;2023-07-31T04:07:38;97492.44;;;33.80;81.49
31225;BME280;17847;31.524;74.366;2023-07-31T04:10:07;97497.63;;;33.86;82.39
31225;BME280;17847;31.524;74.366;2023-07-31T04:12:40;97495.81;;;34.00;81.79
31225;BME280;17847;31.524;74.366;2023-07-31T04:15:11;97490.34;;;34.04;80.41
31225;BME280;17847;31.524;74.366;2023-07-31T04:17:41;97491.59;;;34.10;80.63
31225;BME280;17847;31.524;74.366;2023-07-31T04:20:11;97497.38;;;34.35;82.29
31225;BME280;17847;31.524;74.366;2023-07-31T04:22:42;97496.50;;;34.27;77.47
31225;BME280;17847;31.524;74.366;2023-07-31T04:25:13;97492.94;;;34.23;76.29
31225;BME280;17847;31.524;74.366;2023-07-31T04:27:42;97489.06;;;34.27;79.47
31225;BME280;17847;31.524;74.366;2023-07-31T04:30:12;97493.56;;;34.43;78.95
31225;BME280;17847;31.524;74.366;2023-07-31T04:32:41;97490.69;;;34.72;76.24
31225;BME280;17847;31.524;74.366;2023-07-31T04:35:11;97502.09;;;34.75;76.75
31225;BME280;17847;31.524;74.366;2023-07-31T04:37:40;97496.72;;;34.89;75.91
31225;BME280;17847;31.524;74.366;2023-07-31T04:40:10;97499.88;;;34.91;72.59
31225;BME280;17847;31.524;74.366;2023-07-31T04:42:40;97501.63;;;35.13;73.58
31225;BME280;17847;31.524;74.366;2023-07-31T04:45:10;97508.28;;;35.08;71.92
31225;BME280;17847;31.524;74.366;2023-07-31T04:47:39;97504.16;;;35.36;74.29
31225;BME280;17847;31.524;74.366;2023-07-31T04:50:09;97503.03;;;35.47;76.17
31225;BME280;17847;31.524;74.366;2023-07-31T04:52:38;97495.59;;;35.51;70.03
31225;BME280;17847;31.524;74.366;2023-07-31T04:55:08;97495.97;;;35.50;72.56
31225;BME280;17847;31.524;74.366;2023-07-31T04:57:38;97500.97;;;35.27;71.97
31225;BME280;17847;31.524;74.366;2023-07-31T05:00:07;97498.72;;;35.46;73.06
31225;BME280;17847;31.524;74.366;2023-07-31T05:02:37;97501.41;;;35.36;69.43
31225;BME280;17847;31.524;74.366;2023-07-31T05:05:07;97508.47;;;35.37;75.29
31225;BME280;17847;31.524;74.366;2023-07-31T05:07:37;97502.84;;;35.81;70.53
31225;BME280;17847;31.524;74.366;2023-07-31T05:10:06;97506.78;;;35.83;70.24
31225;BME280;17847;31.524;74.366;2023-07-31T05:12:36;97503.25;;;35.90;68.24
31225;BME280;17847;31.524;74.366;2023-07-31T05:15:06;97508.38;;;35.84;73.47
31225;BME280;17847;31.524;74.366;2023-07-31T05:17:36;97505.69;;;35.30;74.33
31225;BME280;17847;31.524;74.366;2023-07-31T05:20:07;97511.91;;;35.16;71.37
31225;BME280;17847;31.524;74.366;2023-07-31T05:22:37;97508.63;;;35.03;74.10
31225;BME280;17847;31.524;74.366;2023-07-31T05:25:07;97505.84;;;34.56;74.08
31225;BME280;17847;31.524;74.366;2023-07-31T05:27:37;97504.38;;;34.25;77.18
31225;BME280;17847;31.524;74.366;2023-07-31T05:30:06;97503.84;;;34.53;74.78
31225;BME280;17847;31.524;74.366;2023-07-31T05:32:36;97501.00;;;34.42;74.76
31225;BME280;17847;31.524;74.366;2023-07-31T05:35:06;97501.53;;;35.02;76.14
31225;BME280;17847;31.524;74.366;2023-07-31T05:37:35;97497.50;;;34.86;72.02
31225;BME280;17847;31.524;74.366;2023-07-31T05:40:05;97501.38;;;35.32;72.05
31225;BME280;17847;31.524;74.366;2023-07-31T05:42:35;97508.19;;;35.52;69.51
31225;BME280;17847;31.524;74.366;2023-07-31T05:45:07;97506.28;;;35.64;69.92
31225;BME280;17847;31.524;74.366;2023-07-31T05:47:37;97495.69;;;35.66;73.71
31225;BME280;17847;31.524;74.366;2023-07-31T05:50:08;97499.69;;;35.75;70.60
31225;BME280;17847;31.524;74.366;2023-07-31T05:52:38;97494.97;;;35.83;73.82
31225;BME280;17847;31.524;74.366;2023-07-31T05:55:08;97503.63;;;35.81;72.16
31225;BME280;17847;31.524;74.366;2023-07-31T05:57:39;97505.63;;;35.84;68.91
31225;BME280;17847;31.524;74.366;2023-07-31T06:00:09;97504.28;;;35.57;67.73
31225;BME280;17847;31.524;74.366;2023-07-31T06:02:40;97505.81;;;35.54;68.93
31225;BME280;17847;31.524;74.366;2023-07-31T06:05:09;97493.53;;;35.34;69.21
31225;BME280;17847;31.524;74.366;2023-07-31T06:07:38;97497.66;;;35.10;70.74
31225;BME280;17847;31.524;74.366;2023-07-31T06:10:08;97502.16;;;34.82;71.47
31225;BME280;17847;31.524;74.366;2023-07-31T06:12:38;97499.88;;;34.91;72.98
31225;BME280;17847;31.524;74.366;2023-07-31T06:15:07;97495.09;;;34.84;70.76
31225;BME280;17847;31.524;74.366;2023-07-31T06:17:36;97488.19;;;35.04;71.45
31225;BME280;17847;31.524;74.366;2023-07-31T06:20:07;97491.47;;;35.21;68.83
31225;BME280;17847;31.524;74.366;2023-07-31T06:22:37;97485.75;;;35.54;71.65
31225;BME280;17847;31.524;74.366;2023-07-31T06:25:07;97494.78;;;35.47;68.67
31225;BME280;17847;31.524;74.366;2023-07-31T06:27:42;97491.50;;;35.24;73.62
31225;BME280;17847;31.524;74.366;2023-07-31T06:30:12;97490.03;;;34.86;70.85
31225;BME280;17847;31.524;74.366;2023-07-31T06:32:42;97482.31;;;34.62;74.22
31225;BME280;17847;31.524;74.366;2023-07-31T06:35:11;97487.66;;;34.44;75.59
31225;BME280;17847;31.524;74.366;2023-07-31T06:37:42;97484.84;;;34.37;78.10
31225;BME280;17847;31.524;74.366;2023-07-31T06:40:13;97476.91;;;34.28;80.29
31225;BME280;17847;31.524;74.366;2023-07-31T06:42:43;97476.69;;;34.11;78.18
31225;BME280;17847;31.524;74.366;2023-07-31T06:45:12;97475.44;;;34.05;80.66
31225;BME280;17847;31.524;74.366;2023-07-31T06:47:54;97476.25;;;34.09;81.21
31225;BME280;17847;31.524;74.366;2023-07-31T06:50:24;97475.38;;;34.35;79.98
31225;BME280;17847;31.524;74.366;2023-07-31T06:52:53;97472.75;;;34.49;76.42
31225;BME280;17847;31.524;74.366;2023-07-31T06:55:24;97474.53;;;34.67;77.54
31225;BME280;17847;31.524;74.366;2023-07-31T06:57:55;97474.47;;;34.60;72.23
31225;BME280;17847;31.524;74.366;2023-07-31T07:00:25;97468.69;;;34.72;71.31
31225;BME280;17847;31.524;74.366;2023-07-31T07:02:54;97467.47;;;34.70;76.08
31225;BME280;17847;31.524;74.366;2023-07-31T07:05:24;97469.75;;;34.61;77.82
31225;BME280;17847;31.524;74.366;2023-07-31T07:07:53;97468.44;;;34.48;75.13
31225;BME280;17847;31.524;74.366;2023-07-31T07:10:22;97471.41;;;34.28;78.01
31225;BME280;17847;31.524;74.366;2023-07-31T07:12:53;97469.94;;;34.05;78.03
31225;BME280;17847;31.524;74.366;2023-07-31T07:15:24;97471.03;;;33.97;78.69
31225;BME280;17847;31.524;74.366;2023-07-31T07:17:55;97469.88;;;33.98;82.33
31225;BME280;17847;31.524;74.366;2023-07-31T07:20:25;97469.66;;;33.80;84.51
31225;BME280;17847;31.524;74.366;2023-07-31T07:22:56;97461.44;;;33.80;81.28
31225;BME280;17847;31.524;74.366;2023-07-31T07:25:25;97459.03;;;33.78;79.08
31225;BME280;17847;31.524;74.366;2023-07-31T07:27:55;97466.13;;;33.79;80.46
31225;BME280;17847;31.524;74.366;2023-07-31T07:30:24;97465.81;;;33.84;81.20
31225;BME280;17847;31.524;74.366;2023-07-31T07:32:54;97460.28;;;33.81;79.90
31225;BME280;17847;31.524;74.366;2023-07-31T07:35:23;97467.72;;;33.80;82.25
31225;BME280;17847;31.524;74.366;2023-07-31T07:37:52;97459.69;;;33.68;78.86
31225;BME280;17847;31.524;74.366;2023-07-31T07:40:22;97452.94;;;33.62;78.50
31225;BME280;17847;31.524;74.366;2023-07-31T07:42:51;97463.25;;;33.69;80.76
31225;BME280;17847;31.524;74.366;2023-07-31T07:45:21;97456.25;;;33.45;80.78
31225;BME280;17847;31.524;74.366;2023-07-31T07:47:51;97451.94;;;33.44;82.28
31225;BME280;17847;31.524;74.366;2023-07-31T07:50:20;97445.72;;;33.21;84.08
31225;BME280;17847;31.524;74.366;2023-07-31T07:52:50;97453.16;;;33.20;84.89
31225;BME280;17847;31.524;74.366;2023-07-31T07:55:19;97443.78;;;33.21;84.33
31225;BME280;17847;31.524;74.366;2023-07-31T07:57:49;97455.13;;;33.20;83.81
31225;BME280;17847;31.524;74.366;2023-07-31T08:00:19;97453.41;;;33.12;83.88
31225;BME280;17847;31.524;74.366;2023-07-31T08:02:48;97442.88;;;33.14;81.34
31225;BME280;17847;31.524;74.366;2023-07-31T08:05:18;97442.16;;;33.17;81.36
31225;BME280;17847;31.524;74.366;2023-07-31T08:07:48;97440.22;;;33.21;82.42
31225;BME280;17847;31.524;74.366;2023-07-31T08:10:21;97434.88;;;33.28;82.63
31225;BME280;17847;31.524;74.366;2023-07-31T08:12:50;97437.94;;;33.23;82.31
31225;BME280;17847;31.524;74.366;2023-07-31T08:15:20;97433.03;;;33.13;81.98
31225;BME280;17847;31.524;74.366;2023-07-31T08:17:50;97429.50;;;33.12;80.95
31225;BME280;17847;31.524;74.366;2023-07-31T08:20:20;97431.88;;;33.14;81.93
31225;BME280;17847;31.524;74.366;2023-07-31T08:22:49;97427.13;;;33.11;87.61
31225;BME280;17847;31.524;74.366;2023-07-31T08:25:19;97424.59;;;32.98;92.15
31225;BME280;17847;31.524;74.366;2023-07-31T08:27:48;97419.50;;;32.97;87.59
31225;BME280;17847;31.524;74.366;2023-07-31T08:30:21;97423.94;;;33.05;83.89
31225;BME280;17847;31.524;74.366;2023-07-31T08:32:52;97412.94;;;33.05;86.39
31225;BME280;17847;31.524;74.366;2023-07-31T08:35:23;97411.03;;;33.09;81.75
31225;BME280;17847;31.524;74.366;2023-07-31T08:37:54;97401.84;;;33.24;83.08
31225;BME280;17847;31.524;74.366;2023-07-31T08:40:23;97397.63;;;33.30;84.04
31225;BME280;17847;31.524;74.366;2023-07-31T08:42:54;97397.81;;;33.45;79.62
31225;BME280;17847;31.524;74.366;2023-07-31T08:45:25;97394.41;;;33.55;80.47
31225;BME280;17847;31.524;74.366;2023-07-31T08:47:55;97389.75;;;33.59;81.50
31225;BME280;17847;31.524;74.366;2023-07-31T08:50:26;97382.34;;;33.63;81.65
31225;BME280;17847;31.524;74.366;2023-07-31T08:52:56;97384.00;;;33.67;79.83
31225;BME280;17847;31.524;74.366;2023-07-31T08:55:27;97372.44;;;33.92;78.38
31225;BME280;17847;31.524;74.366;2023-07-31T08:57:57;97369.16;;;34.16;80.05
31225;BME280;17847;31.524;74.366;2023-07-31T09:00:28;97363.88;;;34.41;76.96
31225;BME280;17847;31.524;74.366;2023-07-31T09:03:14;97370.22;;;34.48;76.15
31225;BME280;17847;31.524;74.366;2023-07-31T09:05:46;97362.38;;;34.47;73.68
31225;BME280;17847;31.524;74.366;2023-07-31T09:08:19;97356.84;;;34.43;75.26
31225;BME280;17847;31.524;74.366;2023-07-31T09:10:49;97353.25;;;34.39;76.97
31225;BME280;17847;31.524;74.366;2023-07-31T09:13:18;97346.63;;;34.44;77.96
31225;BME280;17847;31.524;74.366;2023-07-31T09:15:52;97354.94;;;34.51;74.65
31225;BME280;17847;31.524;74.366;2023-07-31T09:18:23;97351.75;;;34.49;73.67
31225;BME280;17847;31.524;74.366;2023-07-31T09:21:05;97349.13;;;34.63;71.49
31225;BME280;17847;31.524;74.366;2023-07-31T09:23:44;97342.50;;;34.71;71.15
31225;BME280;17847;31.524;74.366;2023-07-31T09:26:31;97333.16;;;34.83;68.57
31225;BME280;17847;31.524;74.366;2023-07-31T09:29:05;97332.75;;;34.81;71.01
31225;BME280;17847;31.524;74.366;2023-07-31T09:31:43;97327.31;;;34.91;73.22
31225;BME280;17847;31.524;74.366;2023-07-31T09:34:15;97318.69;;;35.00;70.90
31225;BME280;17847;31.524;74.366;2023-07-31T09:36:47;97317.50;;;34.97;70.32
31225;BME280;17847;31.524;74.366;2023-07-31T09:39:17;97311.63;;;35.02;70.35
31225;BME280;17847;31.524;74.366;2023-07-31T09:41:57;97307.72;;;35.07;69.80
31225;BME280;17847;31.524;74.366;2023-07-31T09:44:40;97303.38;;;35.06;69.92
31225;BME280;17847;31.524;74.366;2023-07-31T09:47:22;97295.16;;;35.13;68.04
31225;BME280;17847;31.524;74.366;2023-07-31T09:49:55;97291.59;;;35.09;68.54
31225;BME280;17847;31.524;74.366;2023-07-31T09:52:26;97290.41;;;35.06;68.73
31225;BME280;17847;31.524;74.366;2023-07-31T09:54:56;97292.78;;;35.04;68.56
31225;BME280;17847;31.524;74.366;2023-07-31T09:57:26;97292.34;;;34.99;67.59
31225;BME280;17847;31.524;74.366;2023-07-31T09:59:58;97286.06;;;35.02;70.20
31225;BME280;17847;31.524;74.366;2023-07-31T10:02:38;97275.84;;;34.99;71.12
31225;BME280;17847;31.524;74.366;2023-07-31T10:05:08;97274.66;;;34.96;73.22
31225;BME280;17847;31.524;74.366;2023-07-31T10:07:39;97274.25;;;34.98;71.38
31225;BME280;17847;31.524;74.366;2023-07-31T10:10:11;97273.09;;;34.99;71.02
31225;BME280;17847;31.524;74.366;2023-07-31T10:12:44;97273.88;;;34.96;71.17
31225;BME280;17847;31.524;74.366;2023-07-31T10:15:15;97276.22;;;34.97;69.98
31225;BME280;17847;31.524;74.366;2023-07-31T10:17:49;97275.47;;;35.00;68.70
31225;BME280;17847;31.524;74.366;2023-07-31T10:20:20;97270.34;;;34.99;70.73
31225;BME280;17847;31.524;74.366;2023-07-31T10:22:54;97264.81;;;34.95;69.19
31225;BME280;17847;31.524;74.366;2023-07-31T10:25:26;97260.84;;;34.89;68.30
31225;BME280;17847;31.524;74.366;2023-07-31T10:27:57;97261.56;;;34.72;70.79
31225;BME280;17847;31.524;74.366;2023-07-31T10:30:29;97259.19;;;34.70;69.96
31225;BME280;17847;31.524;74.366;2023-07-31T10:32:59;97249.38;;;34.69;69.18
31225;BME280;17847;31.524;74.366;2023-07-31T10:35:30;97237.88;;;34.57;70.05
31225;BME280;17847;31.524;74.366;2023-07-31T10:38:26;97242.53;;;34.42;71.11
31225;BME280;17847;31.524;74.366;2023-07-31T10:41:08;97241.28;;;34.36;70.23
31225;BME280;17847;31.524;74.366;2023-07-31T10:43:38;97235.75;;;34.25;70.78
31225;BME280;17847;31.524;74.366;2023-07-31T10:46:09;97228.59;;;34.17;71.04
31225;BME280;17847;31.524;74.366;2023-07-31T10:48:39;97225.00;;;34.10;71.93
31225;BME280;17847;31.524;74.366;2023-07-31T10:51:13;97230.50;;;34.10;73.30
31225;BME280;17847;31.524;74.366;2023-07-31T10:53:42;97225.81;;;34.14;73.48
31225;BME280;17847;31.524;74.366;2023-07-31T10:56:15;97220.00;;;34.22;72.11
31225;BME280;17847;31.524;74.366;2023-07-31T10:59:01;97218.81;;;34.20;74.83
31225;BME280;17847;31.524;74.366;2023-07-31T11:02:05;97218.41;;;34.18;74.24
31225;BME280;17847;31.524;74.366;2023-07-31T11:05:07;97215.59;;;34.11;76.81
31225;BME280;17847;31.524;74.366;2023-07-31T11:07:47;97223.38;;;33.98;78.50
31225;BME280;17847;31.524;74.366;2023-07-31T11:10:18;97218.25;;;33.97;79.04
31225;BME280;17847;31.524;74.366;2023-07-31T11:12:49;97217.50;;;34.03;76.33
31225;BME280;17847;31.524;74.366;2023-07-31T11:15:20;97210.09;;;34.11;75.48
31225;BME280;17847;31.524;74.366;2023-07-31T11:17:49;97209.78;;;34.19;74.97
31225;BME280;17847;31.524;74.366;2023-07-31T11:20:19;97208.66;;;34.31;74.28
31225;BME280;17847;31.524;74.366;2023-07-31T11:22:49;97205.53;;;34.33;76.32
31225;BME280;17847;31.524;74.366;2023-07-31T11:25:22;97209.81;;;34.23;76.01
31225;BME280;17847;31.524;74.366;2023-07-31T11:27:52;97207.72;;;34.13;76.40
31225;BME280;17847;31.524;74.366;2023-07-31T11:30:24;97201.88;;;34.14;78.39
31225;BME280;17847;31.524;74.366;2023-07-31T11:32:55;97186.22;;;34.18;76.61
31225;BME280;17847;31.524;74.366;2023-07-31T11:35:32;97185.06;;;34.23;76.68
31225;BME280;17847;31.524;74.366;2023-07-31T11:38:02;97182.69;;;34.21;76.65
31225;BME280;17847;31.524;74.366;2023-07-31T11:40:31;97195.63;;;34.17;76.62
31225;BME280;17847;31.524;74.366;2023-07-31T11:43:10;97188.16;;;34.18;74.80
31225;BME280;17847;31.524;74.366;2023-07-31T11:45:55;97187.72;;;34.12;73.99
31225;BME280;17847;31.524;74.366;2023-07-31T11:48:30;97185.72;;;34.06;75.23
31225;BME280;17847;31.524;74.366;2023-07-31T11:51:08;97186.50;;;34.06;74.67
31225;BME280;17847;31.524;74.366;2023-07-31T11:53:47;97193.59;;;34.11;74.83
31225;BME280;17847;31.524;74.366;2023-07-31T11:56:19;97188.88;;;34.08;74.61
31225;BME280;17847;31.524;74.366;2023-07-31T11:58:55;97193.53;;;34.04;74.42
31225;BME280;17847;31.524;74.366;2023-07-31T12:01:27;97195.09;;;34.01;76.29
31225;BME280;17847;31.524;74.366;2023-07-31T12:03:57;97187.25;;;34.00;76.22
31225;BME280;17847;31.524;74.366;2023-07-31T12:06:37;97186.44;;;33.99;76.80
31225;BME280;17847;31.524;74.366;2023-07-31T12:09:07;97190.31;;;33.91;77.95
31225;BME280;17847;31.524;74.366;2023-07-31T12:11:43;97184.81;;;33.88;77.37
31225;BME280;17847;31.524;74.366;2023-07-31T12:14:27;97182.03;;;33.80;77.65
31225;BME280;17847;31.524;74.366;2023-07-31T12:17:04;97179.22;;;33.77;77.50
31225;BME280;17847;31.524;74.366;2023-07-31T12:19:36;97180.00;;;33.74;77.31
31225;BME280;17847;31.524;74.366;2023-07-31T12:22:16;97174.47;;;33.70;77.62
31225;BME280;17847;31.524;74.366;2023-07-31T12:24:46;97172.44;;;33.64;78.27
31225;BME280;17847;31.524;74.366;2023-07-31T12:27:16;97175.91;;;33.57;80.11
31225;BME280;17847;31.524;74.366;2023-07-31T12:29:47;97171.16;;;33.51;80.03
31225;BME280;17847;31.524;74.366;2023-07-31T12:32:22;97176.25;;;33.49;80.89
31225;BME280;17847;31.524;74.366;2023-07-31T12:34:54;97173.47;;;33.45;80.93
31225;BME280;17847;31.524;74.366;2023-07-31T12:37:25;97165.56;;;33.36;82.89
31225;BME280;17847;31.524;74.366;2023-07-31T12:39:54;97176.91;;;33.35;81.96
31225;BME280;17847;31.524;74.366;2023-07-31T12:42:24;97180.00;;;33.33;82.56
31225;BME280;17847;31.524;74.366;2023-07-31T12:44:54;97179.19;;;33.29;80.50
31225;BME280;17847;31.524;74.366;2023-07-31T12:47:23;97182.34;;;33.28;80.76
31225;BME280;17847;31.524;74.366;2023-07-31T12:49:53;97174.03;;;33.24;80.43
31225;BME280;17847;31.524;74.366;2023-07-31T12:52:22;97176.75;;;33.21;80.70
31225;BME280;17847;31.524;74.366;2023-07-31T12:54:52;97177.09;;;33.16;80.41
31225;BME280;17847;31.524;74.366;2023-07-31T12:57:22;97172.72;;;33.11;80.64
31225;BME280;17847;31.524;74.366;2023-07-31T12:59:51;97173.84;;;33.07;80.70
31225;BME280;17847;31.524;74.366;2023-07-31T13:02:21;97169.44;;;32.98;80.75
31225;BME280;17847;31.524;74.366;2023-07-31T13:04:53;97164.38;;;32.97;78.87
31225;BME280;17847;31.524;74.366;2023-07-31T13:07:23;97172.16;;;32.95;76.90
31225;BME280;17847;31.524;74.366;2023-07-31T13:09:54;97174.13;;;32.94;76.14
31225;BME280;17847;31.524;74.366;2023-07-31T13:12:23;97169.06;;;32.96;77.50
31225;BME280;17847;31.524;74.366;2023-07-31T13:14:53;97166.31;;;32.96;78.30
31225;BME280;17847;31.524;74.366;2023-07-31T13:17:23;97172.94;;;32.92;79.43
31225;BME280;17847;31.524;74.366;2023-07-31T13:19:53;97167.75;;;32.83;80.66
31225;BME280;17847;31.524;74.366;2023-07-31T13:22:23;97162.59;;;32.78;80.87